createdAt,value
2022-12-09T00:00:10.397Z,8.15
2022-12-09T00:05:12.376Z,8.32
2022-12-09T00:10:13.952Z,8.05
2022-12-09T00:15:15.529Z,8.10
2022-12-09T00:20:17.202Z,7.82
2022-12-09T00:25:18.851Z,8.20
2022-12-09T00:30:20.488Z,8.55
2022-12-09T00:35:23.011Z,8.23
2022-12-09T00:40:24.585Z,7.50
2022-12-09T00:45:26.104Z,8.40
2022-12-09T00:50:27.803Z,8.25
2022-12-09T00:55:29.654Z,9.10
2022-12-09T01:00:31.708Z,8.80
2022-12-09T01:05:36.427Z,8.35
2022-12-09T01:10:39.814Z,8.32
2022-12-09T01:15:42.215Z,7.55
2022-12-09T01:20:43.832Z,9.25
2022-12-09T01:25:45.970Z,9.20
2022-12-09T01:30:47.770Z,8.85
2022-12-09T01:35:49.560Z,8.98
2022-12-09T01:40:51.405Z,8.48
2022-12-09T01:45:53.152Z,9.68
2022-12-09T01:50:59.451Z,9.25
2022-12-09T01:56:05.832Z,8.73
2022-12-09T02:01:07.777Z,9.25
2022-12-09T02:06:09.825Z,8.65
2022-12-09T02:11:37.562Z,9.13
2022-12-09T02:17:03.562Z,9.55
2022-12-09T02:22:08.120Z,9.15
2022-12-09T02:27:32.487Z,9.32
2022-12-09T02:32:40.520Z,9.45
2022-12-09T02:38:06.851Z,8.80
2022-12-09T02:43:10.995Z,9.32
2022-12-09T02:48:18.499Z,9.18
2022-12-09T02:53:23.502Z,9.52
2022-12-09T02:58:25.301Z,8.38
2022-12-09T03:03:31.212Z,10.27
2022-12-09T03:08:48.312Z,8.07
2022-12-09T03:19:03.798Z,8.30
2022-12-09T03:24:08.447Z,8.50
2022-12-09T03:29:18.361Z,7.18
2022-12-09T03:34:24.943Z,8.38
2022-12-09T03:39:32.847Z,9.02
2022-12-09T03:44:43.891Z,9.73
2022-12-09T03:49:45.524Z,8.20
2022-12-09T03:54:55.285Z,8.52
2022-12-09T04:00:00.218Z,8.88
2022-12-09T04:05:02.312Z,8.35
2022-12-09T04:10:06.286Z,8.90
2022-12-09T04:15:08.863Z,8.05
2022-12-09T04:20:11.225Z,8.55
2022-12-09T04:25:13.726Z,9.45
2022-12-09T04:30:15.647Z,8.57
2022-12-09T04:35:17.163Z,8.20
2022-12-09T04:40:23.807Z,7.90
2022-12-09T04:45:25.956Z,8.48
2022-12-09T04:50:27.949Z,7.40
2022-12-09T04:55:29.665Z,8.85
2022-12-09T05:00:31.237Z,7.88
2022-12-09T05:05:32.884Z,8.82
2022-12-09T05:10:34.831Z,9.70
2022-12-09T05:15:38.386Z,9.57
2022-12-09T05:20:41.191Z,9.93
2022-12-09T05:25:42.821Z,9.65
2022-12-09T05:30:44.569Z,10.38
2022-12-09T05:35:52.758Z,10.48
2022-12-09T05:40:55.303Z,11.00
2022-12-09T05:45:56.950Z,10.32
2022-12-09T05:51:00.028Z,12.60
2022-12-09T05:56:02.088Z,10.55
2022-12-09T06:01:06.343Z,13.13
2022-12-09T06:06:14.680Z,11.25
2022-12-09T06:11:19.758Z,11.65
2022-12-09T06:16:22.439Z,11.82
2022-12-09T06:21:24.500Z,11.88
2022-12-09T06:26:31.919Z,12.85
2022-12-09T06:31:33.665Z,12.15
2022-12-09T06:36:36.241Z,13.38
2022-12-09T06:41:40.690Z,12.38
2022-12-09T06:46:42.324Z,12.35
2022-12-09T06:51:44.709Z,12.65
2022-12-09T06:56:46.564Z,12.52
2022-12-09T07:01:48.806Z,10.18
2022-12-09T07:06:50.625Z,11.60
2022-12-09T07:11:52.830Z,12.90
2022-12-09T07:16:54.591Z,11.77
2022-12-09T07:21:56.657Z,13.93
2022-12-09T07:27:03.127Z,14.27
2022-12-09T07:32:11.632Z,14.15
2022-12-09T07:37:13.354Z,15.02
2022-12-09T07:42:15.058Z,14.45
2022-12-09T07:47:26.504Z,15.48
2022-12-09T07:52:28.318Z,16.52
2022-12-09T07:57:29.881Z,15.38
2022-12-09T08:02:31.893Z,15.95
2022-12-09T08:07:37.309Z,17.75
2022-12-09T08:12:42.440Z,16.55
2022-12-09T08:17:44.317Z,15.05
2022-12-09T08:22:46.129Z,14.70
2022-12-09T08:27:47.877Z,13.88
2022-12-09T08:32:50.095Z,17.50
2022-12-09T08:37:52.186Z,15.60
2022-12-09T08:42:54.265Z,14.32
2022-12-09T08:47:56.360Z,15.45
2022-12-09T08:52:58.281Z,16.00
2022-12-09T08:58:00.095Z,14.77
2022-12-09T09:03:01.990Z,15.52
2022-12-09T09:08:04.237Z,14.18
2022-12-09T09:13:05.848Z,13.77
2022-12-09T09:18:07.790Z,13.27
2022-12-09T09:23:10.063Z,14.23
2022-12-09T09:28:11.789Z,13.40
2022-12-09T09:33:13.357Z,12.68
2022-12-09T09:38:15.329Z,12.85
2022-12-09T09:43:19.430Z,13.18
2022-12-09T09:48:24.588Z,13.18
2022-12-09T09:53:32.068Z,11.98
2022-12-09T09:58:49.516Z,11.50
2022-12-09T10:04:03.421Z,11.82
2022-12-09T10:09:22.867Z,11.30
2022-12-09T10:15:00.873Z,10.27
2022-12-09T10:20:10.626Z,10.88
2022-12-09T10:25:22.234Z,11.07
2022-12-09T10:30:24.602Z,11.25
2022-12-09T10:35:30.155Z,8.65
2022-12-09T10:40:48.192Z,9.48
2022-12-09T10:51:36.649Z,9.90
2022-12-09T10:57:00.132Z,8.02
2022-12-09T11:02:06.306Z,8.70
2022-12-09T11:07:21.879Z,7.38
2022-12-09T11:12:27.321Z,8.20
2022-12-09T11:17:30.311Z,7.60
2022-12-09T11:22:36.627Z,6.35
2022-12-09T11:27:49.490Z,6.90
2022-12-09T11:32:55.948Z,7.80
2022-12-09T11:38:02.226Z,7.38
2022-12-09T11:43:04.704Z,7.40
2022-12-09T11:48:35.106Z,7.65
2022-12-09T11:53:42.177Z,6.57
2022-12-09T11:59:11.494Z,6.90
2022-12-09T12:04:21.081Z,7.07
2022-12-09T12:09:43.755Z,7.35
2022-12-09T12:14:45.297Z,6.82
2022-12-09T12:19:51.624Z,6.80
2022-12-09T12:25:21.406Z,7.63
2022-12-09T12:30:39.809Z,10.35
2022-12-09T12:35:47.777Z,7.03
2022-12-09T12:41:04.625Z,6.93
2022-12-09T12:46:17.044Z,7.45
2022-12-09T12:51:24.471Z,7.75
2022-12-09T12:56:37.365Z,8.20
2022-12-09T13:01:57.084Z,6.32
2022-12-09T13:07:36.042Z,7.13
2022-12-09T13:12:43.046Z,7.10
2022-12-09T13:17:47.070Z,6.53
2022-12-09T13:23:20.900Z,7.60
2022-12-09T13:28:33.693Z,7.82
2022-12-09T13:33:49.747Z,9.30
2022-12-09T13:38:51.403Z,8.20
2022-12-09T13:43:54.625Z,6.40
2022-12-09T13:48:56.262Z,7.30
2022-12-09T13:53:57.768Z,6.78
2022-12-09T13:59:17.423Z,5.97
2022-12-09T14:04:24.812Z,5.45
2022-12-09T14:09:35.550Z,6.13
2022-12-09T14:14:44.013Z,8.93
2022-12-09T14:19:48.613Z,7.97
2022-12-09T14:24:53.895Z,7.75
2022-12-09T14:30:23.333Z,9.23
2022-12-09T14:35:49.000Z,8.30
2022-12-09T14:40:59.547Z,8.60
2022-12-09T14:46:07.255Z,8.63
2022-12-09T14:51:34.741Z,8.90
2022-12-09T14:56:36.407Z,11.63
2022-12-09T15:01:54.358Z,9.85
2022-12-09T15:07:18.355Z,9.43
2022-12-09T15:12:25.184Z,9.23
2022-12-09T15:22:36.816Z,10.00
2022-12-09T15:27:38.393Z,10.63
2022-12-09T15:32:39.975Z,11.30
2022-12-09T15:37:41.808Z,14.98
2022-12-09T15:42:46.914Z,15.80
2022-12-09T15:48:08.895Z,14.23
2022-12-09T15:53:39.149Z,11.68
2022-12-09T15:58:52.552Z,11.90
2022-12-09T16:03:55.967Z,14.38
2022-12-09T16:08:58.130Z,14.32
2022-12-09T16:14:00.869Z,16.70
2022-12-09T16:19:02.431Z,16.23
2022-12-09T16:24:12.962Z,19.73
2022-12-09T16:29:27.759Z,18.02
2022-12-09T16:34:29.824Z,17.08
2022-12-09T16:39:33.596Z,18.88
2022-12-09T16:44:37.111Z,17.38
2022-12-09T16:49:40.472Z,21.58
2022-12-09T16:54:46.292Z,30.23
2022-12-09T16:59:48.270Z,26.08
2022-12-09T17:04:51.397Z,21.10
2022-12-09T17:09:52.904Z,22.88
2022-12-09T17:14:54.515Z,19.98
2022-12-09T17:19:56.086Z,20.08
2022-12-09T17:24:57.606Z,22.02
2022-12-09T17:29:59.190Z,23.85
2022-12-09T17:35:00.741Z,21.95
2022-12-09T17:40:03.871Z,22.25
2022-12-09T17:45:06.480Z,22.23
2022-12-09T17:50:08.689Z,21.40
2022-12-09T17:55:10.907Z,24.00
2022-12-09T18:00:13.083Z,23.85
2022-12-09T18:05:14.642Z,27.05
2022-12-09T18:10:16.362Z,26.10
2022-12-09T18:15:17.990Z,24.77
2022-12-09T18:20:19.614Z,24.58
2022-12-09T18:25:21.110Z,24.20
2022-12-09T18:30:22.658Z,27.10
2022-12-09T18:35:24.209Z,25.95
2022-12-09T18:40:26.183Z,25.40
2022-12-09T18:45:27.789Z,37.67
2022-12-09T18:50:29.285Z,27.50
2022-12-09T18:55:30.753Z,30.45
2022-12-09T19:00:32.297Z,30.30
2022-12-09T19:05:42.072Z,31.50
2022-12-09T19:10:52.523Z,31.90
2022-12-09T19:15:54.070Z,28.92
2022-12-09T19:20:55.646Z,30.10
2022-12-09T19:25:57.213Z,29.05
2022-12-09T19:30:58.813Z,29.25
2022-12-09T19:36:03.300Z,30.20
2022-12-09T19:41:05.133Z,31.20
2022-12-09T19:46:08.789Z,29.23
2022-12-09T19:51:12.988Z,26.90
2022-12-09T19:56:17.959Z,30.38
2022-12-09T20:01:25.207Z,29.52
2022-12-09T20:06:27.423Z,32.65
2022-12-09T20:11:30.731Z,32.17
2022-12-09T20:16:33.441Z,31.27
2022-12-09T20:21:34.988Z,32.85
2022-12-09T20:26:37.663Z,33.35
2022-12-09T20:31:40.840Z,37.22
2022-12-09T20:36:43.972Z,41.60
2022-12-09T20:41:46.501Z,44.55
2022-12-09T20:46:51.855Z,40.55
2022-12-09T20:51:54.370Z,40.70
2022-12-09T20:56:55.913Z,36.97
2022-12-09T21:01:57.484Z,36.42
2022-12-09T21:06:58.984Z,37.22
2022-12-09T21:12:00.549Z,36.10
2022-12-09T21:17:02.149Z,34.08
2022-12-09T21:22:04.074Z,34.05
2022-12-09T21:27:05.551Z,34.10
2022-12-09T21:32:07.108Z,32.40
2022-12-09T21:37:08.641Z,32.42
2022-12-09T21:42:10.151Z,33.22
2022-12-09T21:47:12.032Z,30.23
2022-12-09T21:52:13.548Z,29.98
2022-12-09T21:57:15.074Z,32.08
2022-12-09T22:02:16.816Z,28.48
2022-12-09T22:07:18.719Z,30.45
2022-12-09T22:12:20.322Z,30.50
2022-12-09T22:17:21.820Z,29.23
2022-12-09T22:22:23.300Z,28.13
2022-12-09T22:27:24.944Z,28.08
2022-12-09T22:32:29.264Z,27.30
2022-12-09T22:37:46.114Z,29.88
2022-12-09T22:42:47.644Z,28.00
2022-12-09T22:47:50.222Z,28.30
2022-12-09T22:52:51.778Z,26.75
2022-12-09T22:57:53.315Z,26.13
2022-12-09T23:02:54.973Z,25.95
2022-12-09T23:07:56.570Z,25.45
2022-12-09T23:12:58.180Z,28.92
2022-12-09T23:18:00.094Z,28.67
2022-12-09T23:23:01.601Z,27.73
2022-12-09T23:28:03.225Z,28.15
2022-12-09T23:33:04.724Z,29.10
2022-12-09T23:38:06.378Z,29.73
2022-12-09T23:43:08.013Z,30.88
2022-12-09T23:48:09.561Z,27.25
2022-12-09T23:53:11.037Z,29.25
2022-12-09T23:58:12.513Z,28.77
